Главная страница
METAR-TAF:

METAR-TAF

Аэропорты :

Сейшелы

Виктория, Маэ, Сейшелы

широта: 04-40S, долгота: 055-31E, высота над уровнем моря: 3 м

Текущие метеонаблюдения

Эта сводка был подготовлена 40 минут назад, в 15:00 UTC
Ветер 13 Узел от восточно-юго-восточный
Температура 25°C
Влажность 89%
Давление 1012 hPa
Видимость 10 км и более
небольшая облачность на высоте 2200 фута

METAR: FSIA 191500Z 12013KT 9999 R13///// FEW022 25/23 Q1012 NOSIG

Время: 19:40 (15:40 UTC)

Прогноз

Эта сводка был подготовлена 4 часа и 39 минут назад, в 11:01 UTC
Прогноз действительный с 19-го 12 UTC до 20-го 12 UTC
Ветер 15 Узел от юго-юго-восточный с порывами до 25 Узел
Видимость 10 км и более
Отдельные облака на высоте 2200 фута

TAF: FSIA 191101Z 1912/2012 15015G25KT 9999 SCT022

Метеонаблюдения и прогнозы для более 4000 аэропортов (сводки METAR и TAF).

Имеющиеся станции представлены на карте желтыми и красными точками.

Чтобы увидеть название станции, наведите на нее мышь.

Затем щелкните, чтобы увидеть метеонаблюдения и метеопрогнозы.

Управление картой: чтобы увеличить масштаб, щелкните зеленые кнопки с черным крестиком; чтобы уменьшить масштаб, щелкните зеленую кнопку с тире; для просмотра соседних карт щелкайте зеленые стрелки.


METAR-TAF: